createdAt,value
2022-10-12T00:01:19.208Z,2.73
2022-10-12T00:05:29.576Z,2.70
2022-10-12T00:09:40.191Z,2.27
2022-10-12T00:13:49.650Z,2.67
2022-10-12T00:17:58.794Z,2.63
2022-10-12T00:22:07.892Z,2.53
2022-10-12T00:26:20.245Z,2.47
2022-10-12T00:30:30.908Z,2.80
2022-10-12T00:34:41.308Z,3.33
2022-10-12T00:38:53.528Z,3.13
2022-10-12T00:43:06.467Z,3.90
2022-10-12T00:47:32.666Z,2.90
2022-10-12T00:51:44.175Z,3.20
2022-10-12T00:55:57.131Z,3.50
2022-10-12T01:00:14.256Z,3.10
2022-10-12T01:04:25.406Z,3.53
2022-10-12T01:08:35.368Z,3.40
2022-10-12T01:12:46.769Z,3.10
2022-10-12T01:17:04.127Z,3.77
2022-10-12T01:21:20.269Z,3.40
2022-10-12T01:25:51.989Z,2.83
2022-10-12T01:30:24.350Z,3.10
2022-10-12T01:34:38.089Z,3.20
2022-10-12T01:38:56.070Z,3.43
2022-10-12T01:43:06.388Z,3.33
2022-10-12T01:47:17.949Z,3.40
2022-10-12T01:51:34.089Z,3.80
2022-10-12T01:55:49.128Z,3.20
2022-10-12T02:00:07.049Z,3.33
2022-10-12T02:04:27.790Z,3.27
2022-10-12T02:08:43.226Z,3.87
2022-10-12T02:12:54.810Z,3.90
2022-10-12T02:17:06.827Z,3.63
2022-10-12T02:21:20.813Z,3.30
2022-10-12T02:25:30.746Z,2.87
2022-10-12T02:29:42.390Z,3.27
2022-10-12T02:33:59.169Z,3.77
2022-10-12T02:38:16.387Z,3.40
2022-10-12T02:42:32.157Z,3.27
2022-10-12T02:46:46.749Z,3.50
2022-10-12T02:50:58.947Z,3.10
2022-10-12T02:55:10.212Z,3.80
2022-10-12T02:59:20.893Z,3.60
2022-10-12T03:03:30.327Z,2.77
2022-10-12T03:07:40.146Z,3.10
2022-10-12T03:11:51.227Z,3.67
2022-10-12T03:16:04.448Z,3.50
2022-10-12T03:20:14.333Z,3.27
2022-10-12T03:24:23.474Z,3.40
2022-10-12T03:28:35.270Z,3.83
2022-10-12T03:32:44.468Z,4.53
2022-10-12T03:36:53.649Z,3.47
2022-10-12T03:41:06.565Z,3.70
2022-10-12T03:45:17.812Z,4.13
2022-10-12T03:49:26.950Z,3.50
2022-10-12T03:53:36.169Z,4.30
2022-10-12T03:57:46.089Z,4.30
2022-10-12T04:01:56.666Z,3.33
2022-10-12T04:06:06.088Z,3.50
2022-10-12T04:10:15.263Z,3.90
2022-10-12T04:14:24.287Z,2.90
2022-10-12T04:18:36.226Z,3.67
2022-10-12T04:22:45.500Z,3.63
2022-10-12T04:26:54.608Z,3.80
2022-10-12T04:31:03.870Z,3.70
2022-10-12T04:35:14.509Z,3.83
2022-10-12T04:39:23.669Z,3.57
2022-10-12T04:43:32.808Z,3.87
2022-10-12T04:47:41.949Z,4.20
2022-10-12T04:51:52.507Z,3.80
2022-10-12T04:56:05.126Z,3.63
2022-10-12T05:00:15.107Z,3.20
2022-10-12T05:04:24.281Z,3.57
2022-10-12T05:08:34.968Z,3.57
2022-10-12T05:12:44.287Z,4.00
2022-10-12T05:16:53.527Z,4.40
2022-10-12T05:21:03.228Z,4.83
2022-10-12T05:25:14.108Z,3.90
2022-10-12T05:29:23.305Z,4.23
2022-10-12T05:33:32.348Z,4.17
2022-10-12T05:37:41.445Z,4.40
2022-10-12T05:41:54.686Z,4.10
2022-10-12T05:46:03.788Z,4.00
2022-10-12T05:50:12.907Z,4.40
2022-10-12T05:54:22.468Z,4.63
2022-10-12T05:58:33.250Z,3.67
2022-10-12T06:02:42.386Z,4.40
2022-10-12T06:06:52.727Z,4.60
2022-10-12T06:11:02.007Z,4.07
2022-10-12T06:15:15.647Z,4.30
2022-10-12T06:19:24.747Z,3.90
2022-10-12T06:23:34.048Z,4.40
2022-10-12T06:27:43.187Z,4.73
2022-10-12T06:31:54.592Z,4.27
2022-10-12T06:36:03.986Z,4.40
2022-10-12T06:40:14.308Z,4.30
2022-10-12T06:44:23.507Z,3.93
2022-10-12T06:48:34.190Z,4.37
2022-10-12T06:52:43.930Z,3.57
2022-10-12T06:56:57.898Z,3.90
2022-10-12T07:01:10.814Z,4.33
2022-10-12T07:05:22.870Z,4.90
2022-10-12T07:09:34.127Z,4.43
2022-10-12T07:13:43.547Z,4.00
2022-10-12T07:17:53.061Z,4.37
2022-10-12T07:22:03.847Z,4.20
2022-10-12T07:26:13.329Z,3.93
2022-10-12T07:30:22.692Z,5.07
2022-10-12T07:34:32.833Z,4.00
2022-10-12T07:38:45.699Z,4.30
2022-10-12T07:43:24.041Z,4.57
2022-10-12T07:47:25.189Z,4.20
2022-10-12T07:51:34.908Z,4.27
2022-10-12T07:55:46.008Z,4.07
2022-10-12T07:59:55.271Z,4.33
2022-10-12T08:04:04.932Z,4.73
2022-10-12T08:08:14.609Z,4.13
2022-10-12T08:12:26.029Z,3.77
2022-10-12T08:16:35.489Z,3.67
2022-10-12T08:20:48.015Z,3.67
2022-10-12T08:24:57.573Z,2.97
2022-10-12T08:29:09.171Z,3.63
2022-10-12T08:33:19.392Z,3.20
2022-10-12T08:37:28.792Z,2.97
2022-10-12T08:41:49.752Z,2.83
2022-10-12T08:46:05.030Z,2.77
2022-10-12T08:50:22.869Z,2.70
2022-10-12T08:54:37.189Z,2.60
2022-10-12T08:58:47.773Z,3.00
2022-10-12T09:03:11.334Z,2.60
2022-10-12T09:07:27.231Z,3.10
2022-10-12T09:11:56.308Z,2.83
2022-10-12T09:16:14.388Z,2.80
2022-10-12T09:20:30.432Z,2.73
2022-10-12T09:24:40.074Z,2.60
2022-10-12T09:28:53.119Z,2.63
2022-10-12T09:33:19.831Z,2.00
2022-10-12T09:37:34.088Z,1.90
2022-10-12T09:41:46.941Z,1.83
2022-10-12T09:45:57.486Z,2.07
2022-10-12T09:50:14.040Z,2.20
2022-10-12T09:54:28.007Z,1.60
2022-10-12T09:58:44.849Z,1.80
2022-10-12T10:02:55.354Z,1.87
2022-10-12T10:07:27.790Z,2.10
2022-10-12T10:11:38.454Z,2.03
2022-10-12T10:15:51.533Z,2.03
2022-10-12T10:20:04.592Z,1.90
2022-10-12T10:24:36.771Z,1.93
2022-10-12T10:28:48.915Z,1.53
2022-10-12T10:33:19.004Z,1.70
2022-10-12T10:37:28.629Z,1.87
2022-10-12T10:41:39.850Z,1.60
2022-10-12T10:45:54.312Z,1.60
2022-10-12T10:50:07.533Z,1.57
2022-10-12T10:54:18.430Z,1.70
2022-10-12T10:58:38.610Z,2.03
2022-10-12T11:02:53.989Z,1.67
2022-10-12T11:07:09.652Z,1.80
2022-10-12T11:11:23.476Z,1.67
2022-10-12T11:15:38.427Z,2.00
2022-10-12T11:19:53.810Z,1.63
2022-10-12T11:24:10.988Z,1.60
2022-10-12T11:28:20.272Z,2.20
2022-10-12T11:32:34.871Z,1.73
2022-10-12T11:37:19.138Z,2.00
2022-10-12T11:41:36.457Z,1.60
2022-10-12T11:45:50.049Z,1.50
2022-10-12T11:50:02.826Z,1.80
2022-10-12T11:54:23.287Z,1.67
2022-10-12T11:58:59.217Z,1.53
2022-10-12T12:03:19.246Z,1.53
2022-10-12T12:07:44.547Z,1.57
2022-10-12T12:12:11.047Z,1.80
2022-10-12T12:16:28.588Z,1.53
2022-10-12T12:21:02.550Z,1.23
2022-10-12T12:25:33.136Z,2.07
2022-10-12T12:29:52.826Z,1.57
2022-10-12T12:38:48.209Z,1.67
2022-10-12T12:43:22.049Z,1.63
2022-10-12T12:47:45.832Z,1.83
2022-10-12T12:51:58.390Z,1.40
2022-10-12T12:56:50.847Z,2.13
2022-10-12T13:01:19.184Z,1.60
2022-10-12T13:06:08.427Z,1.57
2022-10-12T13:10:33.589Z,1.63
2022-10-12T13:15:22.028Z,1.50
2022-10-12T13:19:36.907Z,1.57
2022-10-12T13:23:50.805Z,1.00
2022-10-12T13:28:02.629Z,1.40
2022-10-12T13:32:21.127Z,1.47
2022-10-12T13:36:31.950Z,1.40
2022-10-12T13:40:45.607Z,1.67
2022-10-12T13:44:55.067Z,1.40
2022-10-12T13:49:14.308Z,1.50
2022-10-12T13:53:23.766Z,1.73
2022-10-12T13:57:41.629Z,1.67
2022-10-12T14:01:53.273Z,1.20
2022-10-12T14:06:04.483Z,1.43
2022-10-12T14:10:20.666Z,1.77
2022-10-12T14:14:38.228Z,1.40
2022-10-12T14:18:49.627Z,1.07
2022-10-12T14:23:00.549Z,1.20
2022-10-12T14:27:10.630Z,1.27
2022-10-12T14:31:21.484Z,1.67
2022-10-12T14:35:32.310Z,1.30
2022-10-12T14:39:43.161Z,1.30
2022-10-12T14:44:10.430Z,1.40
2022-10-12T14:48:24.383Z,1.40
2022-10-12T14:52:39.807Z,1.70
2022-10-12T14:56:50.151Z,1.63
2022-10-12T15:00:59.659Z,1.47
2022-10-12T15:05:12.229Z,0.90
2022-10-12T15:09:21.345Z,1.40
2022-10-12T15:13:31.748Z,1.30
2022-10-12T15:17:41.187Z,1.87
2022-10-12T15:21:51.867Z,1.63
2022-10-12T15:26:01.230Z,1.80
2022-10-12T15:30:12.008Z,1.90
2022-10-12T15:34:21.349Z,1.83
2022-10-12T15:38:31.969Z,1.60
2022-10-12T15:42:42.866Z,1.40
2022-10-12T15:46:53.485Z,1.60
2022-10-12T15:51:02.809Z,1.63
2022-10-12T15:55:22.348Z,1.70
2022-10-12T15:59:31.507Z,1.20
2022-10-12T16:03:40.709Z,1.60
2022-10-12T16:07:50.708Z,1.47
2022-10-12T16:12:27.447Z,1.20
2022-10-12T16:16:38.506Z,1.80
2022-10-12T16:20:53.461Z,1.77
2022-10-12T16:25:04.174Z,1.30
2022-10-12T16:29:14.909Z,1.60
2022-10-12T16:33:26.607Z,1.30
2022-10-12T16:37:37.267Z,1.63
2022-10-12T16:41:46.866Z,1.20
2022-10-12T16:45:59.892Z,1.50
2022-10-12T16:50:12.365Z,1.20
2022-10-12T16:54:24.260Z,1.57
2022-10-12T16:58:33.746Z,1.40
2022-10-12T17:02:44.114Z,1.20
2022-10-12T17:06:57.510Z,1.33
2022-10-12T17:11:10.100Z,1.40
2022-10-12T17:15:20.427Z,1.40
2022-10-12T17:19:33.401Z,1.53
2022-10-12T17:23:44.392Z,1.47
2022-10-12T17:27:53.659Z,1.40
2022-10-12T17:32:03.447Z,1.67
2022-10-12T17:36:14.845Z,1.40
2022-10-12T17:40:29.629Z,1.80
2022-10-12T17:44:39.890Z,1.30
2022-10-12T17:48:50.664Z,2.40
2022-10-12T17:53:01.814Z,1.90
2022-10-12T17:57:14.580Z,1.70
2022-10-12T18:01:25.293Z,1.80
2022-10-12T18:05:54.485Z,1.10
2022-10-12T18:10:04.194Z,1.53
2022-10-12T18:14:15.710Z,1.47
2022-10-12T18:18:27.577Z,1.33
2022-10-12T18:22:37.011Z,1.30
2022-10-12T18:26:47.651Z,1.90
2022-10-12T18:30:58.416Z,1.80
2022-10-12T18:35:10.249Z,1.60
2022-10-12T18:39:20.223Z,1.57
2022-10-12T18:43:29.568Z,1.83
2022-10-12T18:47:41.066Z,1.73
2022-10-12T18:51:51.612Z,1.63
2022-10-12T20:16:51.966Z,1.40
2022-10-12T20:21:02.027Z,1.60
2022-10-12T20:25:23.306Z,1.70
2022-10-12T22:01:40.548Z,1.30
2022-10-12T22:05:50.286Z,1.23
2022-10-12T22:24:31.643Z,1.63
2022-10-12T22:28:41.738Z,1.50
2022-10-12T22:32:52.439Z,1.80
2022-10-12T22:41:53.826Z,1.57
2022-10-12T22:46:04.672Z,1.40
2022-10-12T22:50:15.872Z,1.43
2022-10-12T22:54:28.963Z,1.97
2022-10-12T22:58:40.772Z,2.00
2022-10-12T23:02:55.328Z,1.33
2022-10-12T23:07:08.542Z,1.40
2022-10-12T23:11:25.565Z,1.90
2022-10-12T23:15:45.630Z,1.80
2022-10-12T23:20:25.246Z,1.40
2022-10-12T23:25:08.288Z,1.70
2022-10-12T23:29:34.481Z,1.80
2022-10-12T23:33:49.167Z,2.07
2022-10-12T23:38:01.982Z,1.70
2022-10-12T23:42:18.784Z,1.20
2022-10-12T23:46:34.351Z,1.73
2022-10-12T23:50:48.600Z,1.90
2022-10-12T23:55:02.004Z,1.43
2022-10-12T23:59:15.188Z,1.80
